sensor_id;sensor_type;location;lat;lon;timestamp;P1;durP1;ratioP1;P2;durP2;ratioP2
59239;SDS011;45010;53.640;10.578;2023-08-12T00:02:44;2.15;;;1.75;;
59239;SDS011;45010;53.640;10.578;2023-08-12T00:05:45;3.80;;;1.65;;
59239;SDS011;45010;53.640;10.578;2023-08-12T00:08:46;2.72;;;1.85;;
59239;SDS011;45010;53.640;10.578;2023-08-12T00:11:46;3.10;;;1.95;;
59239;SDS011;45010;53.640;10.578;2023-08-12T00:14:46;2.15;;;1.95;;
59239;SDS011;45010;53.640;10.578;2023-08-12T00:17:47;2.35;;;1.65;;
59239;SDS011;45010;53.640;10.578;2023-08-12T00:20:47;2.13;;;1.80;;
59239;SDS011;45010;53.640;10.578;2023-08-12T00:23:47;3.13;;;2.00;;
59239;SDS011;45010;53.640;10.578;2023-08-12T00:26:49;2.38;;;1.80;;
59239;SDS011;45010;53.640;10.578;2023-08-12T00:29:49;2.92;;;1.77;;
59239;SDS011;45010;53.640;10.578;2023-08-12T00:32:50;3.00;;;2.03;;
59239;SDS011;45010;53.640;10.578;2023-08-12T00:35:50;4.10;;;1.98;;
59239;SDS011;45010;53.640;10.578;2023-08-12T00:38:50;3.00;;;1.75;;
59239;SDS011;45010;53.640;10.578;2023-08-12T00:41:51;2.38;;;1.85;;
59239;SDS011;45010;53.640;10.578;2023-08-12T00:44:51;2.63;;;1.77;;
59239;SDS011;45010;53.640;10.578;2023-08-12T00:47:51;1.67;;;1.58;;
59239;SDS011;45010;53.640;10.578;2023-08-12T00:50:52;3.67;;;1.60;;
59239;SDS011;45010;53.640;10.578;2023-08-12T00:53:52;3.08;;;1.67;;
59239;SDS011;45010;53.640;10.578;2023-08-12T00:56:54;1.70;;;1.58;;
59239;SDS011;45010;53.640;10.578;2023-08-12T00:59:55;2.80;;;1.88;;
59239;SDS011;45010;53.640;10.578;2023-08-12T01:02:56;1.95;;;1.75;;
59239;SDS011;45010;53.640;10.578;2023-08-12T01:05:56;3.58;;;1.98;;
59239;SDS011;45010;53.640;10.578;2023-08-12T01:08:56;2.17;;;1.45;;
59239;SDS011;45010;53.640;10.578;2023-08-12T01:15:11;2.65;;;1.70;;
59239;SDS011;45010;53.640;10.578;2023-08-12T01:18:16;1.60;;;1.50;;
59239;SDS011;45010;53.640;10.578;2023-08-12T01:21:17;2.42;;;1.80;;
59239;SDS011;45010;53.640;10.578;2023-08-12T01:24:22;1.95;;;1.70;;
59239;SDS011;45010;53.640;10.578;2023-08-12T01:27:22;1.58;;;1.30;;
59239;SDS011;45010;53.640;10.578;2023-08-12T01:30:22;2.13;;;1.90;;
59239;SDS011;45010;53.640;10.578;2023-08-12T01:36:24;2.17;;;1.42;;
59239;SDS011;45010;53.640;10.578;2023-08-12T01:39:26;3.30;;;1.95;;
59239;SDS011;45010;53.640;10.578;2023-08-12T01:42:28;3.40;;;1.85;;
59239;SDS011;45010;53.640;10.578;2023-08-12T01:45:32;1.92;;;1.73;;
59239;SDS011;45010;53.640;10.578;2023-08-12T01:48:33;2.05;;;1.50;;
59239;SDS011;45010;53.640;10.578;2023-08-12T01:51:33;2.00;;;1.80;;
59239;SDS011;45010;53.640;10.578;2023-08-12T01:54:33;2.17;;;1.60;;
59239;SDS011;45010;53.640;10.578;2023-08-12T01:57:34;1.77;;;1.60;;
59239;SDS011;45010;53.640;10.578;2023-08-12T02:00:35;3.03;;;1.60;;
59239;SDS011;45010;53.640;10.578;2023-08-12T02:03:35;2.13;;;1.67;;
59239;SDS011;45010;53.640;10.578;2023-08-12T02:06:35;3.20;;;1.65;;
59239;SDS011;45010;53.640;10.578;2023-08-12T02:09:36;1.90;;;1.65;;
59239;SDS011;45010;53.640;10.578;2023-08-12T02:12:36;3.38;;;1.63;;
59239;SDS011;45010;53.640;10.578;2023-08-12T02:15:36;1.98;;;1.52;;
59239;SDS011;45010;53.640;10.578;2023-08-12T02:18:37;2.50;;;1.30;;
59239;SDS011;45010;53.640;10.578;2023-08-12T02:21:37;3.60;;;1.70;;
59239;SDS011;45010;53.640;10.578;2023-08-12T02:24:37;1.92;;;1.50;;
59239;SDS011;45010;53.640;10.578;2023-08-12T02:27:38;2.88;;;1.40;;
59239;SDS011;45010;53.640;10.578;2023-08-12T02:30:38;2.88;;;1.83;;
59239;SDS011;45010;53.640;10.578;2023-08-12T02:33:38;1.55;;;1.45;;
59239;SDS011;45010;53.640;10.578;2023-08-12T02:36:39;3.38;;;1.83;;
59239;SDS011;45010;53.640;10.578;2023-08-12T02:39:39;1.88;;;1.52;;
59239;SDS011;45010;53.640;10.578;2023-08-12T02:42:39;2.53;;;1.48;;
59239;SDS011;45010;53.640;10.578;2023-08-12T02:45:40;1.77;;;1.60;;
59239;SDS011;45010;53.640;10.578;2023-08-12T02:48:41;1.58;;;1.45;;
59239;SDS011;45010;53.640;10.578;2023-08-12T02:51:41;3.13;;;1.55;;
59239;SDS011;45010;53.640;10.578;2023-08-12T02:54:42;2.03;;;1.33;;
59239;SDS011;45010;53.640;10.578;2023-08-12T02:57:42;3.15;;;1.50;;
59239;SDS011;45010;53.640;10.578;2023-08-12T03:00:42;2.80;;;1.77;;
59239;SDS011;45010;53.640;10.578;2023-08-12T03:03:46;2.35;;;1.50;;
59239;SDS011;45010;53.640;10.578;2023-08-12T03:06:46;2.45;;;1.80;;
59239;SDS011;45010;53.640;10.578;2023-08-12T03:09:47;1.60;;;1.50;;
59239;SDS011;45010;53.640;10.578;2023-08-12T03:12:47;3.53;;;1.40;;
59239;SDS011;45010;53.640;10.578;2023-08-12T03:15:47;1.50;;;1.40;;
59239;SDS011;45010;53.640;10.578;2023-08-12T03:18:48;3.60;;;1.77;;
59239;SDS011;45010;53.640;10.578;2023-08-12T03:21:48;4.57;;;1.75;;
59239;SDS011;45010;53.640;10.578;2023-08-12T03:24:48;2.40;;;1.60;;
59239;SDS011;45010;53.640;10.578;2023-08-12T03:27:49;1.65;;;1.55;;
59239;SDS011;45010;53.640;10.578;2023-08-12T03:30:50;1.83;;;1.65;;
59239;SDS011;45010;53.640;10.578;2023-08-12T03:33:51;2.53;;;1.45;;
59239;SDS011;45010;53.640;10.578;2023-08-12T03:36:51;2.33;;;1.50;;
59239;SDS011;45010;53.640;10.578;2023-08-12T03:39:51;2.90;;;1.50;;
59239;SDS011;45010;53.640;10.578;2023-08-12T03:42:52;2.65;;;1.60;;
59239;SDS011;45010;53.640;10.578;2023-08-12T03:45:52;2.30;;;1.75;;
59239;SDS011;45010;53.640;10.578;2023-08-12T03:48:52;1.77;;;1.60;;
59239;SDS011;45010;53.640;10.578;2023-08-12T03:51:53;2.47;;;1.52;;
59239;SDS011;45010;53.640;10.578;2023-08-12T03:54:53;1.83;;;1.50;;
59239;SDS011;45010;53.640;10.578;2023-08-12T03:57:53;4.82;;;1.52;;
59239;SDS011;45010;53.640;10.578;2023-08-12T04:00:54;1.60;;;1.50;;
59239;SDS011;45010;53.640;10.578;2023-08-12T04:03:54;2.38;;;1.52;;
59239;SDS011;45010;53.640;10.578;2023-08-12T04:06:54;1.83;;;1.30;;
59239;SDS011;45010;53.640;10.578;2023-08-12T04:13:14;1.63;;;1.40;;
59239;SDS011;45010;53.640;10.578;2023-08-12T04:16:14;2.42;;;1.58;;
59239;SDS011;45010;53.640;10.578;2023-08-12T04:19:15;2.03;;;1.50;;
59239;SDS011;45010;53.640;10.578;2023-08-12T04:22:15;1.48;;;1.38;;
59239;SDS011;45010;53.640;10.578;2023-08-12T04:25:16;1.80;;;1.70;;
59239;SDS011;45010;53.640;10.578;2023-08-12T04:28:17;2.70;;;1.50;;
59239;SDS011;45010;53.640;10.578;2023-08-12T04:31:18;2.85;;;1.83;;
59239;SDS011;45010;53.640;10.578;2023-08-12T04:34:18;1.85;;;1.50;;
59239;SDS011;45010;53.640;10.578;2023-08-12T04:37:19;2.08;;;1.60;;
59239;SDS011;45010;53.640;10.578;2023-08-12T04:40:19;1.40;;;1.30;;
59239;SDS011;45010;53.640;10.578;2023-08-12T04:43:19;2.15;;;1.30;;
59239;SDS011;45010;53.640;10.578;2023-08-12T04:46:20;2.25;;;1.58;;
59239;SDS011;45010;53.640;10.578;2023-08-12T04:49:20;2.50;;;1.40;;
59239;SDS011;45010;53.640;10.578;2023-08-12T04:52:21;1.50;;;1.40;;
59239;SDS011;45010;53.640;10.578;2023-08-12T04:55:21;1.50;;;1.40;;
59239;SDS011;45010;53.640;10.578;2023-08-12T04:58:21;2.75;;;1.50;;
59239;SDS011;45010;53.640;10.578;2023-08-12T05:01:22;2.33;;;1.40;;
59239;SDS011;45010;53.640;10.578;2023-08-12T05:04:23;2.03;;;1.70;;
59239;SDS011;45010;53.640;10.578;2023-08-12T05:07:23;2.70;;;1.40;;
59239;SDS011;45010;53.640;10.578;2023-08-12T05:10:23;1.90;;;1.48;;
59239;SDS011;45010;53.640;10.578;2023-08-12T05:13:24;1.60;;;1.50;;
59239;SDS011;45010;53.640;10.578;2023-08-12T05:16:24;1.88;;;1.67;;
59239;SDS011;45010;53.640;10.578;2023-08-12T05:19:24;2.22;;;1.58;;
59239;SDS011;45010;53.640;10.578;2023-08-12T05:22:25;2.88;;;1.58;;
59239;SDS011;45010;53.640;10.578;2023-08-12T05:25:25;2.88;;;1.80;;
59239;SDS011;45010;53.640;10.578;2023-08-12T05:28:25;2.08;;;1.55;;
59239;SDS011;45010;53.640;10.578;2023-08-12T05:31:26;2.65;;;1.75;;
59239;SDS011;45010;53.640;10.578;2023-08-12T05:34:27;3.15;;;1.55;;
59239;SDS011;45010;53.640;10.578;2023-08-12T05:37:27;2.58;;;1.77;;
59239;SDS011;45010;53.640;10.578;2023-08-12T05:40:28;3.50;;;1.55;;
59239;SDS011;45010;53.640;10.578;2023-08-12T05:43:28;2.35;;;1.48;;
59239;SDS011;45010;53.640;10.578;2023-08-12T05:46:28;2.72;;;1.83;;
59239;SDS011;45010;53.640;10.578;2023-08-12T05:49:29;1.67;;;1.48;;
59239;SDS011;45010;53.640;10.578;2023-08-12T05:52:29;2.88;;;1.42;;
59239;SDS011;45010;53.640;10.578;2023-08-12T05:55:29;2.58;;;1.55;;
59239;SDS011;45010;53.640;10.578;2023-08-12T05:58:30;3.15;;;1.70;;
59239;SDS011;45010;53.640;10.578;2023-08-12T06:01:30;1.83;;;1.60;;
59239;SDS011;45010;53.640;10.578;2023-08-12T06:04:30;1.58;;;1.35;;
59239;SDS011;45010;53.640;10.578;2023-08-12T06:07:31;1.70;;;1.55;;
59239;SDS011;45010;53.640;10.578;2023-08-12T06:10:31;1.75;;;1.65;;
59239;SDS011;45010;53.640;10.578;2023-08-12T06:13:32;1.88;;;1.58;;
59239;SDS011;45010;53.640;10.578;2023-08-12T06:16:33;3.13;;;1.50;;
59239;SDS011;45010;53.640;10.578;2023-08-12T06:19:34;3.55;;;1.60;;
59239;SDS011;45010;53.640;10.578;2023-08-12T06:22:34;2.53;;;1.60;;
59239;SDS011;45010;53.640;10.578;2023-08-12T06:25:34;2.85;;;1.50;;
59239;SDS011;45010;53.640;10.578;2023-08-12T06:28:36;1.50;;;1.40;;
59239;SDS011;45010;53.640;10.578;2023-08-12T06:31:36;3.55;;;1.67;;
59239;SDS011;45010;53.640;10.578;2023-08-12T06:34:37;3.78;;;1.30;;
59239;SDS011;45010;53.640;10.578;2023-08-12T06:37:37;2.63;;;1.92;;
59239;SDS011;45010;53.640;10.578;2023-08-12T06:40:38;2.67;;;1.70;;
59239;SDS011;45010;53.640;10.578;2023-08-12T06:43:38;3.10;;;2.10;;
59239;SDS011;45010;53.640;10.578;2023-08-12T06:46:38;3.28;;;1.95;;
59239;SDS011;45010;53.640;10.578;2023-08-12T06:49:39;1.75;;;1.48;;
59239;SDS011;45010;53.640;10.578;2023-08-12T06:52:39;1.70;;;1.60;;
59239;SDS011;45010;53.640;10.578;2023-08-12T06:55:43;1.65;;;1.42;;
59239;SDS011;45010;53.640;10.578;2023-08-12T06:58:45;2.47;;;1.92;;
59239;SDS011;45010;53.640;10.578;2023-08-12T07:01:45;2.63;;;1.70;;
59239;SDS011;45010;53.640;10.578;2023-08-12T07:04:46;2.63;;;2.05;;
59239;SDS011;45010;53.640;10.578;2023-08-12T07:07:46;3.42;;;2.03;;
59239;SDS011;45010;53.640;10.578;2023-08-12T07:10:46;4.10;;;2.40;;
59239;SDS011;45010;53.640;10.578;2023-08-12T07:13:47;3.22;;;2.13;;
59239;SDS011;45010;53.640;10.578;2023-08-12T07:16:47;5.72;;;2.60;;
59239;SDS011;45010;53.640;10.578;2023-08-12T07:19:47;4.30;;;2.20;;
59239;SDS011;45010;53.640;10.578;2023-08-12T07:22:48;5.10;;;2.30;;
59239;SDS011;45010;53.640;10.578;2023-08-12T07:25:48;6.38;;;2.38;;
59239;SDS011;45010;53.640;10.578;2023-08-12T07:28:48;3.15;;;2.28;;
59239;SDS011;45010;53.640;10.578;2023-08-12T07:31:49;3.05;;;2.00;;
59239;SDS011;45010;53.640;10.578;2023-08-12T07:34:49;5.97;;;1.90;;
59239;SDS011;45010;53.640;10.578;2023-08-12T07:37:50;3.40;;;2.40;;
59239;SDS011;45010;53.640;10.578;2023-08-12T07:40:50;3.35;;;2.40;;
59239;SDS011;45010;53.640;10.578;2023-08-12T07:43:50;4.85;;;2.20;;
59239;SDS011;45010;53.640;10.578;2023-08-12T07:46:51;3.00;;;1.92;;
59239;SDS011;45010;53.640;10.578;2023-08-12T07:49:51;3.05;;;2.13;;
59239;SDS011;45010;53.640;10.578;2023-08-12T07:52:51;3.70;;;1.90;;
59239;SDS011;45010;53.640;10.578;2023-08-12T07:55:52;2.35;;;2.15;;
59239;SDS011;45010;53.640;10.578;2023-08-12T07:58:52;2.72;;;2.20;;
59239;SDS011;45010;53.640;10.578;2023-08-12T08:01:52;2.55;;;2.10;;
59239;SDS011;45010;53.640;10.578;2023-08-12T08:04:53;3.60;;;2.10;;
59239;SDS011;45010;53.640;10.578;2023-08-12T08:07:53;2.63;;;1.98;;
59239;SDS011;45010;53.640;10.578;2023-08-12T08:10:53;2.38;;;2.17;;
59239;SDS011;45010;53.640;10.578;2023-08-12T08:13:54;3.53;;;2.00;;
59239;SDS011;45010;53.640;10.578;2023-08-12T08:16:54;4.18;;;2.25;;
59239;SDS011;45010;53.640;10.578;2023-08-12T08:19:54;3.47;;;2.42;;
59239;SDS011;45010;53.640;10.578;2023-08-12T08:22:55;3.65;;;2.08;;
59239;SDS011;45010;53.640;10.578;2023-08-12T08:25:55;3.95;;;2.35;;
59239;SDS011;45010;53.640;10.578;2023-08-12T08:28:55;2.30;;;2.00;;
59239;SDS011;45010;53.640;10.578;2023-08-12T08:31:56;2.38;;;2.05;;
59239;SDS011;45010;53.640;10.578;2023-08-12T08:34:56;2.75;;;2.08;;
59239;SDS011;45010;53.640;10.578;2023-08-12T08:37:56;5.05;;;2.38;;
59239;SDS011;45010;53.640;10.578;2023-08-12T08:40:57;2.50;;;2.30;;
59239;SDS011;45010;53.640;10.578;2023-08-12T08:44:00;2.50;;;2.05;;
59239;SDS011;45010;53.640;10.578;2023-08-12T08:47:03;2.60;;;2.20;;
59239;SDS011;45010;53.640;10.578;2023-08-12T08:50:04;4.57;;;2.72;;
59239;SDS011;45010;53.640;10.578;2023-08-12T08:53:06;4.57;;;3.10;;
59239;SDS011;45010;53.640;10.578;2023-08-12T08:56:07;2.75;;;2.50;;
59239;SDS011;45010;53.640;10.578;2023-08-12T08:59:11;5.38;;;2.65;;
59239;SDS011;45010;53.640;10.578;2023-08-12T09:02:17;7.85;;;2.90;;
59239;SDS011;45010;53.640;10.578;2023-08-12T09:05:18;4.25;;;2.67;;
59239;SDS011;45010;53.640;10.578;2023-08-12T09:08:20;6.20;;;3.05;;
59239;SDS011;45010;53.640;10.578;2023-08-12T09:11:22;5.25;;;2.90;;
59239;SDS011;45010;53.640;10.578;2023-08-12T09:14:23;2.90;;;2.55;;
59239;SDS011;45010;53.640;10.578;2023-08-12T09:17:24;3.53;;;3.00;;
59239;SDS011;45010;53.640;10.578;2023-08-12T09:20:24;5.75;;;2.80;;
59239;SDS011;45010;53.640;10.578;2023-08-12T09:23:26;4.75;;;3.15;;
59239;SDS011;45010;53.640;10.578;2023-08-12T09:26:26;4.47;;;2.85;;
59239;SDS011;45010;53.640;10.578;2023-08-12T09:29:34;5.25;;;3.60;;
59239;SDS011;45010;53.640;10.578;2023-08-12T09:32:35;8.15;;;3.10;;
59239;SDS011;45010;53.640;10.578;2023-08-12T09:35:38;7.57;;;3.67;;
59239;SDS011;45010;53.640;10.578;2023-08-12T09:38:40;6.18;;;3.10;;
59239;SDS011;45010;53.640;10.578;2023-08-12T09:41:41;7.50;;;3.42;;
59239;SDS011;45010;53.640;10.578;2023-08-12T09:44:43;4.72;;;3.00;;
59239;SDS011;45010;53.640;10.578;2023-08-12T09:47:43;4.25;;;3.30;;
59239;SDS011;45010;53.640;10.578;2023-08-12T09:50:44;5.35;;;3.35;;
59239;SDS011;45010;53.640;10.578;2023-08-12T09:53:47;3.85;;;3.15;;
59239;SDS011;45010;53.640;10.578;2023-08-12T09:56:48;7.97;;;3.17;;
59239;SDS011;45010;53.640;10.578;2023-08-12T09:59:49;5.40;;;3.40;;
59239;SDS011;45010;53.640;10.578;2023-08-12T10:02:53;6.00;;;3.03;;
59239;SDS011;45010;53.640;10.578;2023-08-12T10:05:54;5.03;;;3.38;;
59239;SDS011;45010;53.640;10.578;2023-08-12T10:08:55;4.95;;;3.30;;
59239;SDS011;45010;53.640;10.578;2023-08-12T10:11:57;5.63;;;3.47;;
59239;SDS011;45010;53.640;10.578;2023-08-12T10:14:58;3.65;;;3.35;;
59239;SDS011;45010;53.640;10.578;2023-08-12T10:17:59;4.93;;;3.60;;
59239;SDS011;45010;53.640;10.578;2023-08-12T10:21:00;6.82;;;3.45;;
59239;SDS011;45010;53.640;10.578;2023-08-12T10:24:00;4.10;;;3.70;;
59239;SDS011;45010;53.640;10.578;2023-08-12T10:27:03;4.13;;;3.67;;
59239;SDS011;45010;53.640;10.578;2023-08-12T10:30:04;4.57;;;3.10;;
59239;SDS011;45010;53.640;10.578;2023-08-12T10:33:05;5.20;;;3.10;;
59239;SDS011;45010;53.640;10.578;2023-08-12T10:36:06;4.80;;;3.75;;
59239;SDS011;45010;53.640;10.578;2023-08-12T10:39:08;31.92;;;15.27;;
59239;SDS011;45010;53.640;10.578;2023-08-12T10:42:10;11.07;;;5.55;;
59239;SDS011;45010;53.640;10.578;2023-08-12T10:45:11;7.22;;;4.22;;
59239;SDS011;45010;53.640;10.578;2023-08-12T10:48:22;8.30;;;4.60;;
59239;SDS011;45010;53.640;10.578;2023-08-12T10:51:39;6.95;;;4.18;;
59239;SDS011;45010;53.640;10.578;2023-08-12T10:54:39;10.00;;;4.80;;
59239;SDS011;45010;53.640;10.578;2023-08-12T10:57:39;9.88;;;4.20;;
59239;SDS011;45010;53.640;10.578;2023-08-12T11:00:40;9.57;;;4.32;;
59239;SDS011;45010;53.640;10.578;2023-08-12T11:03:45;12.98;;;4.78;;
59239;SDS011;45010;53.640;10.578;2023-08-12T11:06:46;13.40;;;4.68;;
59239;SDS011;45010;53.640;10.578;2023-08-12T11:09:48;6.80;;;4.22;;
59239;SDS011;45010;53.640;10.578;2023-08-12T11:15:52;5.43;;;4.03;;
59239;SDS011;45010;53.640;10.578;2023-08-12T11:19:06;5.97;;;4.30;;
59239;SDS011;45010;53.640;10.578;2023-08-12T11:22:07;7.05;;;3.67;;
59239;SDS011;45010;53.640;10.578;2023-08-12T11:25:09;6.53;;;4.47;;
59239;SDS011;45010;53.640;10.578;2023-08-12T11:28:11;11.57;;;4.43;;
59239;SDS011;45010;53.640;10.578;2023-08-12T11:31:12;7.80;;;4.30;;
59239;SDS011;45010;53.640;10.578;2023-08-12T11:34:12;7.00;;;3.95;;
59239;SDS011;45010;53.640;10.578;2023-08-12T11:37:12;6.35;;;4.35;;
59239;SDS011;45010;53.640;10.578;2023-08-12T11:40:14;6.95;;;4.38;;
59239;SDS011;45010;53.640;10.578;2023-08-12T11:43:16;5.20;;;4.28;;
59239;SDS011;45010;53.640;10.578;2023-08-12T11:46:16;5.40;;;4.10;;
59239;SDS011;45010;53.640;10.578;2023-08-12T11:49:17;5.20;;;3.67;;
59239;SDS011;45010;53.640;10.578;2023-08-12T11:52:17;6.40;;;4.07;;
59239;SDS011;45010;53.640;10.578;2023-08-12T11:55:18;6.60;;;4.00;;
59239;SDS011;45010;53.640;10.578;2023-08-12T11:58:18;7.50;;;4.13;;
59239;SDS011;45010;53.640;10.578;2023-08-12T12:01:20;5.07;;;3.92;;
59239;SDS011;45010;53.640;10.578;2023-08-12T12:04:22;4.78;;;3.92;;
59239;SDS011;45010;53.640;10.578;2023-08-12T12:07:24;4.80;;;3.80;;
59239;SDS011;45010;53.640;10.578;2023-08-12T12:10:26;4.57;;;4.13;;
59239;SDS011;45010;53.640;10.578;2023-08-12T12:13:29;5.47;;;3.80;;
59239;SDS011;45010;53.640;10.578;2023-08-12T12:19:40;6.00;;;3.88;;
59239;SDS011;45010;53.640;10.578;2023-08-12T12:22:42;4.97;;;4.10;;
59239;SDS011;45010;53.640;10.578;2023-08-12T12:25:43;4.38;;;3.88;;
59239;SDS011;45010;53.640;10.578;2023-08-12T12:28:45;4.53;;;3.92;;
59239;SDS011;45010;53.640;10.578;2023-08-12T12:31:45;5.47;;;3.83;;
59239;SDS011;45010;53.640;10.578;2023-08-12T12:34:45;4.65;;;3.63;;
59239;SDS011;45010;53.640;10.578;2023-08-12T12:37:46;5.18;;;3.85;;
59239;SDS011;45010;53.640;10.578;2023-08-12T12:40:47;4.32;;;3.92;;
59239;SDS011;45010;53.640;10.578;2023-08-12T12:43:47;4.13;;;3.03;;
59239;SDS011;45010;53.640;10.578;2023-08-12T12:46:47;3.75;;;3.42;;
59239;SDS011;45010;53.640;10.578;2023-08-12T12:49:48;3.67;;;3.38;;
59239;SDS011;45010;53.640;10.578;2023-08-12T12:52:48;4.13;;;3.58;;
59239;SDS011;45010;53.640;10.578;2023-08-12T12:55:48;4.70;;;3.60;;
59239;SDS011;45010;53.640;10.578;2023-08-12T12:58:49;4.68;;;3.67;;
59239;SDS011;45010;53.640;10.578;2023-08-12T13:01:49;5.07;;;4.00;;
59239;SDS011;45010;53.640;10.578;2023-08-12T13:04:50;4.43;;;3.70;;
59239;SDS011;45010;53.640;10.578;2023-08-12T13:07:50;6.30;;;3.65;;
59239;SDS011;45010;53.640;10.578;2023-08-12T13:10:50;5.28;;;3.65;;
59239;SDS011;45010;53.640;10.578;2023-08-12T13:13:51;6.60;;;3.17;;
59239;SDS011;45010;53.640;10.578;2023-08-12T13:16:51;4.70;;;3.60;;
59239;SDS011;45010;53.640;10.578;2023-08-12T13:19:51;10.23;;;3.92;;
59239;SDS011;45010;53.640;10.578;2023-08-12T13:22:52;5.25;;;3.53;;
59239;SDS011;45010;53.640;10.578;2023-08-12T13:25:52;4.72;;;4.00;;
59239;SDS011;45010;53.640;10.578;2023-08-12T13:28:53;5.32;;;3.53;;
59239;SDS011;45010;53.640;10.578;2023-08-12T13:31:53;6.40;;;4.00;;
59239;SDS011;45010;53.640;10.578;2023-08-12T13:34:53;5.03;;;3.63;;
59239;SDS011;45010;53.640;10.578;2023-08-12T13:37:54;185.13;;;45.78;;
59239;SDS011;45010;53.640;10.578;2023-08-12T13:40:54;110.05;;;30.17;;
59239;SDS011;45010;53.640;10.578;2023-08-12T13:43:55;44.65;;;17.35;;
59239;SDS011;45010;53.640;10.578;2023-08-12T13:46:55;30.38;;;12.70;;
59239;SDS011;45010;53.640;10.578;2023-08-12T13:49:55;28.05;;;11.32;;
59239;SDS011;45010;53.640;10.578;2023-08-12T13:52:56;30.63;;;10.55;;
59239;SDS011;45010;53.640;10.578;2023-08-12T13:55:56;28.40;;;10.13;;
59239;SDS011;45010;53.640;10.578;2023-08-12T13:58:57;19.60;;;8.70;;
59239;SDS011;45010;53.640;10.578;2023-08-12T14:01:57;23.23;;;9.75;;
59239;SDS011;45010;53.640;10.578;2023-08-12T14:04:58;26.15;;;9.20;;
59239;SDS011;45010;53.640;10.578;2023-08-12T14:07:58;18.92;;;8.45;;
59239;SDS011;45010;53.640;10.578;2023-08-12T14:10:59;22.13;;;8.48;;
59239;SDS011;45010;53.640;10.578;2023-08-12T14:14:00;22.17;;;8.43;;
59239;SDS011;45010;53.640;10.578;2023-08-12T14:17:00;24.95;;;8.02;;
59239;SDS011;45010;53.640;10.578;2023-08-12T14:20:00;16.05;;;7.35;;
59239;SDS011;45010;53.640;10.578;2023-08-12T14:23:00;14.18;;;7.53;;
59239;SDS011;45010;53.640;10.578;2023-08-12T14:26:01;15.60;;;8.35;;
59239;SDS011;45010;53.640;10.578;2023-08-12T14:29:01;19.25;;;7.43;;
59239;SDS011;45010;53.640;10.578;2023-08-12T14:32:01;19.92;;;7.63;;
59239;SDS011;45010;53.640;10.578;2023-08-12T14:35:03;12.27;;;7.18;;
59239;SDS011;45010;53.640;10.578;2023-08-12T14:38:03;12.73;;;7.45;;
59239;SDS011;45010;53.640;10.578;2023-08-12T14:41:04;16.52;;;7.95;;
59239;SDS011;45010;53.640;10.578;2023-08-12T14:44:04;11.52;;;7.07;;
59239;SDS011;45010;53.640;10.578;2023-08-12T14:47:05;14.43;;;7.80;;
59239;SDS011;45010;53.640;10.578;2023-08-12T14:50:05;13.38;;;6.97;;
59239;SDS011;45010;53.640;10.578;2023-08-12T14:53:06;12.88;;;6.88;;
59239;SDS011;45010;53.640;10.578;2023-08-12T14:56:06;18.45;;;6.70;;
59239;SDS011;45010;53.640;10.578;2023-08-12T14:59:07;15.25;;;7.05;;
59239;SDS011;45010;53.640;10.578;2023-08-12T15:02:07;14.52;;;6.90;;
59239;SDS011;45010;53.640;10.578;2023-08-12T15:05:07;11.30;;;6.82;;
59239;SDS011;45010;53.640;10.578;2023-08-12T15:08:08;14.30;;;6.60;;
59239;SDS011;45010;53.640;10.578;2023-08-12T15:11:08;13.00;;;6.25;;
59239;SDS011;45010;53.640;10.578;2023-08-12T15:14:08;11.68;;;6.00;;
59239;SDS011;45010;53.640;10.578;2023-08-12T15:17:09;13.27;;;6.57;;
59239;SDS011;45010;53.640;10.578;2023-08-12T15:20:09;13.45;;;7.13;;
59239;SDS011;45010;53.640;10.578;2023-08-12T15:23:10;12.27;;;6.55;;
59239;SDS011;45010;53.640;10.578;2023-08-12T15:26:10;12.77;;;5.90;;
59239;SDS011;45010;53.640;10.578;2023-08-12T15:29:11;10.27;;;6.30;;
59239;SDS011;45010;53.640;10.578;2023-08-12T15:32:12;11.45;;;5.82;;
59239;SDS011;45010;53.640;10.578;2023-08-12T15:35:12;10.05;;;5.97;;
59239;SDS011;45010;53.640;10.578;2023-08-12T15:38:13;9.43;;;5.85;;
59239;SDS011;45010;53.640;10.578;2023-08-12T15:41:14;8.95;;;6.28;;
59239;SDS011;45010;53.640;10.578;2023-08-12T15:44:15;10.93;;;5.55;;
59239;SDS011;45010;53.640;10.578;2023-08-12T15:47:15;11.48;;;5.85;;
59239;SDS011;45010;53.640;10.578;2023-08-12T15:50:16;10.32;;;6.15;;
59239;SDS011;45010;53.640;10.578;2023-08-12T15:53:16;7.75;;;5.47;;
59239;SDS011;45010;53.640;10.578;2023-08-12T15:56:16;10.75;;;5.55;;
59239;SDS011;45010;53.640;10.578;2023-08-12T15:59:17;8.25;;;5.47;;
59239;SDS011;45010;53.640;10.578;2023-08-12T16:02:17;10.00;;;5.47;;
59239;SDS011;45010;53.640;10.578;2023-08-12T16:05:17;8.52;;;5.70;;
59239;SDS011;45010;53.640;10.578;2023-08-12T16:08:18;8.77;;;5.47;;
59239;SDS011;45010;53.640;10.578;2023-08-12T16:11:19;7.43;;;5.25;;
59239;SDS011;45010;53.640;10.578;2023-08-12T16:14:19;7.97;;;5.43;;
59239;SDS011;45010;53.640;10.578;2023-08-12T16:17:20;8.85;;;5.70;;
59239;SDS011;45010;53.640;10.578;2023-08-12T16:20:20;8.73;;;5.75;;
59239;SDS011;45010;53.640;10.578;2023-08-12T16:23:21;6.68;;;5.25;;
59239;SDS011;45010;53.640;10.578;2023-08-12T16:26:21;8.65;;;5.43;;
59239;SDS011;45010;53.640;10.578;2023-08-12T16:29:21;7.68;;;5.22;;
59239;SDS011;45010;53.640;10.578;2023-08-12T16:32:22;7.38;;;4.70;;
59239;SDS011;45010;53.640;10.578;2023-08-12T16:35:22;8.18;;;4.85;;
59239;SDS011;45010;53.640;10.578;2023-08-12T16:38:22;8.88;;;5.75;;
59239;SDS011;45010;53.640;10.578;2023-08-12T16:41:23;6.50;;;4.60;;
59239;SDS011;45010;53.640;10.578;2023-08-12T16:44:23;7.20;;;4.90;;
59239;SDS011;45010;53.640;10.578;2023-08-12T16:47:24;8.18;;;5.22;;
59239;SDS011;45010;53.640;10.578;2023-08-12T16:50:25;8.75;;;5.30;;
59239;SDS011;45010;53.640;10.578;2023-08-12T16:53:25;7.38;;;4.78;;
59239;SDS011;45010;53.640;10.578;2023-08-12T16:56:26;4.78;;;4.22;;
59239;SDS011;45010;53.640;10.578;2023-08-12T16:59:26;6.03;;;4.30;;
59239;SDS011;45010;53.640;10.578;2023-08-12T17:02:26;5.32;;;4.25;;
59239;SDS011;45010;53.640;10.578;2023-08-12T17:05:27;10.05;;;4.95;;
59239;SDS011;45010;53.640;10.578;2023-08-12T17:08:28;6.30;;;3.95;;
59239;SDS011;45010;53.640;10.578;2023-08-12T17:11:28;6.20;;;4.47;;
59239;SDS011;45010;53.640;10.578;2023-08-12T17:14:29;6.45;;;4.13;;
59239;SDS011;45010;53.640;10.578;2023-08-12T17:17:30;5.55;;;4.00;;
59239;SDS011;45010;53.640;10.578;2023-08-12T17:20:30;6.18;;;4.10;;
59239;SDS011;45010;53.640;10.578;2023-08-12T17:23:30;8.70;;;4.28;;
59239;SDS011;45010;53.640;10.578;2023-08-12T17:26:31;7.07;;;4.30;;
59239;SDS011;45010;53.640;10.578;2023-08-12T17:29:31;5.00;;;2.97;;
59239;SDS011;45010;53.640;10.578;2023-08-12T17:32:31;4.50;;;3.47;;
59239;SDS011;45010;53.640;10.578;2023-08-12T17:35:32;3.95;;;3.42;;
59239;SDS011;45010;53.640;10.578;2023-08-12T17:38:32;3.33;;;2.92;;
59239;SDS011;45010;53.640;10.578;2023-08-12T17:41:32;5.40;;;3.30;;
59239;SDS011;45010;53.640;10.578;2023-08-12T17:44:33;4.78;;;2.80;;
59239;SDS011;45010;53.640;10.578;2023-08-12T17:47:33;3.78;;;2.65;;
59239;SDS011;45010;53.640;10.578;2023-08-12T17:50:33;3.35;;;2.78;;
59239;SDS011;45010;53.640;10.578;2023-08-12T17:53:34;4.10;;;2.72;;
59239;SDS011;45010;53.640;10.578;2023-08-12T17:56:34;3.00;;;2.50;;
59239;SDS011;45010;53.640;10.578;2023-08-12T17:59:35;3.60;;;2.85;;
59239;SDS011;45010;53.640;10.578;2023-08-12T18:02:35;3.20;;;2.60;;
59239;SDS011;45010;53.640;10.578;2023-08-12T18:05:35;2.80;;;2.30;;
59239;SDS011;45010;53.640;10.578;2023-08-12T18:08:36;4.97;;;2.03;;